Morning Compass — C6ZY8 — position and weather

sailwx.info

Track history (hours):
 
Tides and Currents Weather Stations Pressure Air Temp Water Temp Dewpoint Dewpoint Depression Visibility Wind Speed Wind Dir Waves Ship Positions

Morning Compass

Last reported at 2018-Jun-13 11:53 UTC. Time now 2018-Jun-19 23:45 UTC.
Position N 31°11' E 123°32'.

Length 200 m; draft 8.1 m.

Type: Cargo ship. MMSI: 311072400.

Date/timePositionNaut miles runAvg speedWind from/ knotsBaromVisibWave heightAir tempDewpointWater temp
2018-Jun-13 11:53N 31°11' E 123°32'714.2
2018-Jun-13 11:23N 31°18' E 123°34'514.5
2018-Jun-13 11:00N 31°23' E 123°36'815.4
2018-Jun-13 10:30N 31°30' E 123°38'815.4
2018-Jun-13 10:00N 31°38' E 123°41'1716.3
2018-Jun-13 08:55N 31°55' E 123°47'2515.5
2018-Jun-13 07:18N 32°19' E 123°55'1814.8
2018-Jun-13 06:06N 32°36' E 124°01'  
2018-Jun-10 15:43N 31°11' E 122°10'314.2
2018-Jun-10 15:30N 31°13' E 122°07'714.2
2018-Jun-10 15:00N 31°15' E 121°59'4 0.1
2018-Jun-09 11:18N 31°16' E 121°54'2710.3
2018-Jun-09 08:39N 31°06' E 122°24'2613.0
2018-Jun-09 06:40N 31°06' E 122°54'419.3
2018-Jun-09 06:28N 31°06' E 122°59'52918.7
2018-Jun-08 02:14N 22°46' E 119°47'619.4
2018-Jun-08 01:56N 22°40' E 119°46'819.0
2018-Jun-08 01:30N 22°32' E 119°44'  
2018-Jun-04 17:35N 01°24' E 104°27'319.2
2018-Jun-04 17:25N 01°22' E 104°24'818.4
2018-Jun-04 16:59N 01°17' E 104°18'918.0
2018-Jun-04 16:30N 01°16' E 104°10'916.6
2018-Jun-04 16:00N 01°14' E 104°01'4 7.2
2018-Jun-04 15:29N 01°14' E 103°58'1 1.8
2018-Jun-04 14:59N 01°14' E 103°57'1 1.5
2018-Jun-04 14:30N 01°13' E 103°56'3 5.7
2018-Jun-04 13:59N 01°12' E 103°53'713.6
2018-Jun-04 13:30N 01°09' E 103°47'713.2
2018-Jun-04 12:57N 01°04' E 103°42'714.7
2018-Jun-04 12:30N 01°04' E 103°35'1018.1
2018-Jun-04 11:58N 01°09' E 103°27'818.3
2018-Jun-04 11:30N 01°14' E 103°20'  
Track history (hours):
 
Tides and Currents Weather Stations Pressure Air Temp Water Temp Dewpoint Dewpoint Depression Visibility Wind Speed Wind Dir Waves Ship Positions

Morning Compass

Last reported at 2018-Jun-13 11:53 UTC. Time now 2018-Jun-19 23:45 UTC.
Position N 31°11' E 123°32'.

Length 200 m; draft 8.1 m.

Type: Cargo ship. MMSI: 311072400.

Date/timePositionNaut miles runAvg speedWind from/ knotsBaromVisibWave heightAir tempDewpointWater temp
2018-Jun-13 11:53N 31°11' E 123°32'714.2
2018-Jun-13 11:23N 31°18' E 123°34'514.5
2018-Jun-13 11:00N 31°23' E 123°36'815.4
2018-Jun-13 10:30N 31°30' E 123°38'815.4
2018-Jun-13 10:00N 31°38' E 123°41'1716.3
2018-Jun-13 08:55N 31°55' E 123°47'2515.5
2018-Jun-13 07:18N 32°19' E 123°55'1814.8
2018-Jun-13 06:06N 32°36' E 124°01'  
2018-Jun-10 15:43N 31°11' E 122°10'314.2
2018-Jun-10 15:30N 31°13' E 122°07'714.2
2018-Jun-10 15:00N 31°15' E 121°59'4 0.1
2018-Jun-09 11:18N 31°16' E 121°54'2710.3
2018-Jun-09 08:39N 31°06' E 122°24'2613.0
2018-Jun-09 06:40N 31°06' E 122°54'419.3
2018-Jun-09 06:28N 31°06' E 122°59'52918.7
2018-Jun-08 02:14N 22°46' E 119°47'619.4
2018-Jun-08 01:56N 22°40' E 119°46'819.0
2018-Jun-08 01:30N 22°32' E 119°44'  
2018-Jun-04 17:35N 01°24' E 104°27'319.2
2018-Jun-04 17:25N 01°22' E 104°24'818.4
2018-Jun-04 16:59N 01°17' E 104°18'918.0
2018-Jun-04 16:30N 01°16' E 104°10'916.6
2018-Jun-04 16:00N 01°14' E 104°01'4 7.2
2018-Jun-04 15:29N 01°14' E 103°58'1 1.8
2018-Jun-04 14:59N 01°14' E 103°57'1 1.5
2018-Jun-04 14:30N 01°13' E 103°56'3 5.7
2018-Jun-04 13:59N 01°12' E 103°53'713.6
2018-Jun-04 13:30N 01°09' E 103°47'713.2
2018-Jun-04 12:57N 01°04' E 103°42'714.7
2018-Jun-04 12:30N 01°04' E 103°35'1018.1
2018-Jun-04 11:58N 01°09' E 103°27'818.3
2018-Jun-04 11:30N 01°14' E 103°20'  

Dump ship's entire track history